sensor_id;sensor_type;location;lat;lon;timestamp;temperature;humidity
23497;DHT22;11925;48.122;11.560;2023-06-14T00:00:36;16.50;89.30
23497;DHT22;11925;48.122;11.560;2023-06-14T00:03:06;16.50;89.40
23497;DHT22;11925;48.122;11.560;2023-06-14T00:05:35;16.50;89.90
23497;DHT22;11925;48.122;11.560;2023-06-14T00:08:07;16.50;90.00
23497;DHT22;11925;48.122;11.560;2023-06-14T00:10:36;16.50;89.90
23497;DHT22;11925;48.122;11.560;2023-06-14T00:13:05;16.50;90.10
23497;DHT22;11925;48.122;11.560;2023-06-14T00:15:35;16.50;90.20
23497;DHT22;11925;48.122;11.560;2023-06-14T00:18:04;16.40;90.20
23497;DHT22;11925;48.122;11.560;2023-06-14T00:20:32;16.50;90.20
23497;DHT22;11925;48.122;11.560;2023-06-14T00:23:01;16.40;90.30
23497;DHT22;11925;48.122;11.560;2023-06-14T00:25:29;16.40;90.30
23497;DHT22;11925;48.122;11.560;2023-06-14T00:27:57;16.40;90.40
23497;DHT22;11925;48.122;11.560;2023-06-14T00:30:25;16.40;90.30
23497;DHT22;11925;48.122;11.560;2023-06-14T00:32:59;16.40;90.60
23497;DHT22;11925;48.122;11.560;2023-06-14T00:35:27;16.30;90.50
23497;DHT22;11925;48.122;11.560;2023-06-14T00:37:56;16.40;90.60
23497;DHT22;11925;48.122;11.560;2023-06-14T00:40:24;16.30;90.70
23497;DHT22;11925;48.122;11.560;2023-06-14T00:42:53;16.30;90.70
23497;DHT22;11925;48.122;11.560;2023-06-14T00:45:21;16.30;90.80
23497;DHT22;11925;48.122;11.560;2023-06-14T00:47:49;16.30;90.80
23497;DHT22;11925;48.122;11.560;2023-06-14T00:50:21;16.30;90.90
23497;DHT22;11925;48.122;11.560;2023-06-14T00:52:50;16.30;91.00
23497;DHT22;11925;48.122;11.560;2023-06-14T00:55:18;16.20;91.10
23497;DHT22;11925;48.122;11.560;2023-06-14T00:57:46;16.20;91.30
23497;DHT22;11925;48.122;11.560;2023-06-14T01:00:16;16.10;91.50
23497;DHT22;11925;48.122;11.560;2023-06-14T01:02:44;16.30;91.20
23497;DHT22;11925;48.122;11.560;2023-06-14T01:05:12;16.20;91.00
23497;DHT22;11925;48.122;11.560;2023-06-14T01:07:46;16.30;90.90
23497;DHT22;11925;48.122;11.560;2023-06-14T01:10:21;16.20;90.90
23497;DHT22;11925;48.122;11.560;2023-06-14T01:12:56;16.20;90.70
23497;DHT22;11925;48.122;11.560;2023-06-14T01:15:26;16.20;90.60
23497;DHT22;11925;48.122;11.560;2023-06-14T01:17:55;16.20;90.50
23497;DHT22;11925;48.122;11.560;2023-06-14T01:20:31;16.20;90.20
23497;DHT22;11925;48.122;11.560;2023-06-14T01:23:01;16.20;90.30
23497;DHT22;11925;48.122;11.560;2023-06-14T01:25:30;16.20;90.50
23497;DHT22;11925;48.122;11.560;2023-06-14T01:27:58;16.20;90.60
23497;DHT22;11925;48.122;11.560;2023-06-14T01:30:27;16.20;90.50
23497;DHT22;11925;48.122;11.560;2023-06-14T01:32:56;16.20;90.50
23497;DHT22;11925;48.122;11.560;2023-06-14T01:35:24;16.20;90.60
23497;DHT22;11925;48.122;11.560;2023-06-14T01:37:54;16.20;90.70
23497;DHT22;11925;48.122;11.560;2023-06-14T01:40:24;16.20;90.70
23497;DHT22;11925;48.122;11.560;2023-06-14T01:42:52;16.10;90.60
23497;DHT22;11925;48.122;11.560;2023-06-14T01:45:21;16.10;90.50
23497;DHT22;11925;48.122;11.560;2023-06-14T01:47:50;16.10;90.50
23497;DHT22;11925;48.122;11.560;2023-06-14T01:50:18;16.10;90.70
23497;DHT22;11925;48.122;11.560;2023-06-14T01:52:46;16.10;90.90
23497;DHT22;11925;48.122;11.560;2023-06-14T01:55:15;16.10;90.90
23497;DHT22;11925;48.122;11.560;2023-06-14T01:57:46;16.10;91.10
23497;DHT22;11925;48.122;11.560;2023-06-14T02:00:15;16.10;91.20
23497;DHT22;11925;48.122;11.560;2023-06-14T02:02:44;16.10;91.30
23497;DHT22;11925;48.122;11.560;2023-06-14T02:05:13;16.00;91.40
23497;DHT22;11925;48.122;11.560;2023-06-14T02:07:43;16.00;91.70
23497;DHT22;11925;48.122;11.560;2023-06-14T02:10:15;16.00;91.70
23497;DHT22;11925;48.122;11.560;2023-06-14T02:12:45;16.00;91.30
23497;DHT22;11925;48.122;11.560;2023-06-14T02:15:13;16.00;91.60
23497;DHT22;11925;48.122;11.560;2023-06-14T02:17:43;16.00;91.50
23497;DHT22;11925;48.122;11.560;2023-06-14T02:20:13;16.00;91.40
23497;DHT22;11925;48.122;11.560;2023-06-14T02:22:42;16.00;91.30
23497;DHT22;11925;48.122;11.560;2023-06-14T02:25:10;16.00;91.30
23497;DHT22;11925;48.122;11.560;2023-06-14T02:27:40;16.00;91.40
23497;DHT22;11925;48.122;11.560;2023-06-14T02:30:12;16.00;91.50
23497;DHT22;11925;48.122;11.560;2023-06-14T02:32:40;15.90;91.30
23497;DHT22;11925;48.122;11.560;2023-06-14T02:35:12;16.00;91.40
23497;DHT22;11925;48.122;11.560;2023-06-14T02:37:40;15.90;91.30
23497;DHT22;11925;48.122;11.560;2023-06-14T02:40:09;15.90;91.30
23497;DHT22;11925;48.122;11.560;2023-06-14T02:42:38;15.90;91.30
23497;DHT22;11925;48.122;11.560;2023-06-14T02:45:07;15.90;91.40
23497;DHT22;11925;48.122;11.560;2023-06-14T02:47:37;15.90;91.30
23497;DHT22;11925;48.122;11.560;2023-06-14T02:50:06;15.90;91.30
23497;DHT22;11925;48.122;11.560;2023-06-14T02:52:34;15.90;91.30
23497;DHT22;11925;48.122;11.560;2023-06-14T02:55:02;15.90;91.20
23497;DHT22;11925;48.122;11.560;2023-06-14T02:57:31;15.90;91.10
23497;DHT22;11925;48.122;11.560;2023-06-14T02:59:59;15.80;91.10
23497;DHT22;11925;48.122;11.560;2023-06-14T03:02:31;15.80;91.10
23497;DHT22;11925;48.122;11.560;2023-06-14T03:05:00;15.80;91.10
23497;DHT22;11925;48.122;11.560;2023-06-14T03:07:30;15.80;90.80
23497;DHT22;11925;48.122;11.560;2023-06-14T03:09:59;15.80;90.90
23497;DHT22;11925;48.122;11.560;2023-06-14T03:12:27;15.80;90.70
23497;DHT22;11925;48.122;11.560;2023-06-14T03:14:55;15.80;90.90
23497;DHT22;11925;48.122;11.560;2023-06-14T03:17:26;15.80;90.80
23497;DHT22;11925;48.122;11.560;2023-06-14T03:20:03;15.80;90.80
23497;DHT22;11925;48.122;11.560;2023-06-14T03:22:32;15.80;90.90
23497;DHT22;11925;48.122;11.560;2023-06-14T03:25:00;15.90;90.90
23497;DHT22;11925;48.122;11.560;2023-06-14T03:27:34;15.70;90.80
23497;DHT22;11925;48.122;11.560;2023-06-14T03:30:04;15.70;90.80
23497;DHT22;11925;48.122;11.560;2023-06-14T03:32:33;15.70;90.90
23497;DHT22;11925;48.122;11.560;2023-06-14T03:35:04;15.70;90.80
23497;DHT22;11925;48.122;11.560;2023-06-14T03:37:33;15.70;91.00
23497;DHT22;11925;48.122;11.560;2023-06-14T03:40:01;15.70;91.10
23497;DHT22;11925;48.122;11.560;2023-06-14T03:42:39;15.70;91.20
23497;DHT22;11925;48.122;11.560;2023-06-14T03:45:07;15.70;91.40
23497;DHT22;11925;48.122;11.560;2023-06-14T03:47:36;15.70;91.50
23497;DHT22;11925;48.122;11.560;2023-06-14T03:50:06;15.70;91.60
23497;DHT22;11925;48.122;11.560;2023-06-14T03:52:34;15.70;91.50
23497;DHT22;11925;48.122;11.560;2023-06-14T03:55:03;15.70;91.50
23497;DHT22;11925;48.122;11.560;2023-06-14T03:57:36;15.70;91.50
23497;DHT22;11925;48.122;11.560;2023-06-14T04:00:09;15.70;91.50
23497;DHT22;11925;48.122;11.560;2023-06-14T04:02:42;15.70;91.50
23497;DHT22;11925;48.122;11.560;2023-06-14T04:05:13;15.70;91.50
23497;DHT22;11925;48.122;11.560;2023-06-14T04:07:46;15.70;91.60
23497;DHT22;11925;48.122;11.560;2023-06-14T04:10:15;15.70;91.60
23497;DHT22;11925;48.122;11.560;2023-06-14T04:12:44;15.70;91.50
23497;DHT22;11925;48.122;11.560;2023-06-14T04:15:12;15.70;91.50
23497;DHT22;11925;48.122;11.560;2023-06-14T04:17:49;15.70;91.70
23497;DHT22;11925;48.122;11.560;2023-06-14T04:20:21;15.70;91.70
23497;DHT22;11925;48.122;11.560;2023-06-14T04:22:50;15.70;91.60
23497;DHT22;11925;48.122;11.560;2023-06-14T04:25:19;15.70;91.50
23497;DHT22;11925;48.122;11.560;2023-06-14T04:27:51;15.70;91.70
23497;DHT22;11925;48.122;11.560;2023-06-14T04:30:21;15.70;91.70
23497;DHT22;11925;48.122;11.560;2023-06-14T04:32:54;15.70;91.60
23497;DHT22;11925;48.122;11.560;2023-06-14T04:35:25;15.60;91.40
23497;DHT22;11925;48.122;11.560;2023-06-14T04:37:54;15.70;91.60
23497;DHT22;11925;48.122;11.560;2023-06-14T04:40:24;15.60;91.60
23497;DHT22;11925;48.122;11.560;2023-06-14T04:42:53;15.70;91.70
23497;DHT22;11925;48.122;11.560;2023-06-14T04:45:21;15.60;91.60
23497;DHT22;11925;48.122;11.560;2023-06-14T04:47:50;15.70;91.80
23497;DHT22;11925;48.122;11.560;2023-06-14T04:50:22;15.70;91.70
23497;DHT22;11925;48.122;11.560;2023-06-14T04:52:52;15.70;91.70
23497;DHT22;11925;48.122;11.560;2023-06-14T04:55:20;15.70;91.70
23497;DHT22;11925;48.122;11.560;2023-06-14T04:57:48;15.70;91.80
23497;DHT22;11925;48.122;11.560;2023-06-14T05:00:20;15.70;91.70
23497;DHT22;11925;48.122;11.560;2023-06-14T05:02:50;15.70;91.60
23497;DHT22;11925;48.122;11.560;2023-06-14T05:05:20;15.70;91.60
23497;DHT22;11925;48.122;11.560;2023-06-14T05:07:49;15.70;91.70
23497;DHT22;11925;48.122;11.560;2023-06-14T05:10:18;15.80;91.80
23497;DHT22;11925;48.122;11.560;2023-06-14T05:12:47;15.80;91.60
23497;DHT22;11925;48.122;11.560;2023-06-14T05:15:17;15.80;91.50
23497;DHT22;11925;48.122;11.560;2023-06-14T05:17:46;15.80;91.40
23497;DHT22;11925;48.122;11.560;2023-06-14T05:20:20;15.80;91.40
23497;DHT22;11925;48.122;11.560;2023-06-14T05:22:49;15.80;91.50
23497;DHT22;11925;48.122;11.560;2023-06-14T05:25:20;15.80;91.20
23497;DHT22;11925;48.122;11.560;2023-06-14T05:27:48;15.80;91.30
23497;DHT22;11925;48.122;11.560;2023-06-14T05:30:16;15.80;91.20
23497;DHT22;11925;48.122;11.560;2023-06-14T05:32:44;15.90;91.00
23497;DHT22;11925;48.122;11.560;2023-06-14T05:35:13;16.00;90.90
23497;DHT22;11925;48.122;11.560;2023-06-14T05:37:42;15.90;91.10
23497;DHT22;11925;48.122;11.560;2023-06-14T05:40:11;15.90;91.00
23497;DHT22;11925;48.122;11.560;2023-06-14T05:42:41;15.90;90.80
23497;DHT22;11925;48.122;11.560;2023-06-14T05:45:09;15.90;90.50
23497;DHT22;11925;48.122;11.560;2023-06-14T05:47:37;15.90;90.60
23497;DHT22;11925;48.122;11.560;2023-06-14T05:50:05;16.00;90.60
23497;DHT22;11925;48.122;11.560;2023-06-14T05:52:34;16.00;90.50
23497;DHT22;11925;48.122;11.560;2023-06-14T05:55:02;16.10;90.90
23497;DHT22;11925;48.122;11.560;2023-06-14T05:57:31;16.10;91.40
23497;DHT22;11925;48.122;11.560;2023-06-14T06:00:00;16.10;91.50
23497;DHT22;11925;48.122;11.560;2023-06-14T06:02:37;16.00;91.30
23497;DHT22;11925;48.122;11.560;2023-06-14T06:05:06;16.10;91.20
23497;DHT22;11925;48.122;11.560;2023-06-14T06:07:35;16.10;90.90
23497;DHT22;11925;48.122;11.560;2023-06-14T06:10:04;16.00;90.80
23497;DHT22;11925;48.122;11.560;2023-06-14T06:12:32;16.10;91.00
23497;DHT22;11925;48.122;11.560;2023-06-14T06:15:02;16.10;90.80
23497;DHT22;11925;48.122;11.560;2023-06-14T06:17:30;16.00;90.70
23497;DHT22;11925;48.122;11.560;2023-06-14T06:20:18;16.10;90.30
23497;DHT22;11925;48.122;11.560;2023-06-14T06:22:47;16.10;90.80
23497;DHT22;11925;48.122;11.560;2023-06-14T06:25:16;16.10;90.80
23497;DHT22;11925;48.122;11.560;2023-06-14T06:27:45;16.20;90.70
23497;DHT22;11925;48.122;11.560;2023-06-14T06:30:15;16.20;90.70
23497;DHT22;11925;48.122;11.560;2023-06-14T06:32:43;16.20;91.00
23497;DHT22;11925;48.122;11.560;2023-06-14T06:35:12;16.20;92.20
23497;DHT22;11925;48.122;11.560;2023-06-14T06:37:41;16.30;92.50
23497;DHT22;11925;48.122;11.560;2023-06-14T06:40:09;16.30;92.60
23497;DHT22;11925;48.122;11.560;2023-06-14T06:42:38;16.30;92.70
23497;DHT22;11925;48.122;11.560;2023-06-14T06:45:11;16.30;92.30
23497;DHT22;11925;48.122;11.560;2023-06-14T06:47:41;16.30;92.40
23497;DHT22;11925;48.122;11.560;2023-06-14T06:50:09;16.20;92.00
23497;DHT22;11925;48.122;11.560;2023-06-14T06:52:37;16.20;91.40
23497;DHT22;11925;48.122;11.560;2023-06-14T06:55:06;16.30;91.70
23497;DHT22;11925;48.122;11.560;2023-06-14T06:57:35;16.30;91.80
23497;DHT22;11925;48.122;11.560;2023-06-14T07:00:04;16.30;91.70
23497;DHT22;11925;48.122;11.560;2023-06-14T07:02:34;16.30;91.10
23497;DHT22;11925;48.122;11.560;2023-06-14T07:05:04;16.30;91.90
23497;DHT22;11925;48.122;11.560;2023-06-14T07:07:33;16.30;92.90
23497;DHT22;11925;48.122;11.560;2023-06-14T07:10:01;16.30;93.20
23497;DHT22;11925;48.122;11.560;2023-06-14T07:12:31;16.30;93.40
23497;DHT22;11925;48.122;11.560;2023-06-14T07:15:02;16.30;93.40
23497;DHT22;11925;48.122;11.560;2023-06-14T07:17:31;16.30;93.60
23497;DHT22;11925;48.122;11.560;2023-06-14T07:20:01;16.30;93.70
23497;DHT22;11925;48.122;11.560;2023-06-14T07:22:40;16.30;93.60
23497;DHT22;11925;48.122;11.560;2023-06-14T07:25:09;16.40;93.70
23497;DHT22;11925;48.122;11.560;2023-06-14T07:27:40;16.40;93.70
23497;DHT22;11925;48.122;11.560;2023-06-14T07:30:09;16.40;94.10
23497;DHT22;11925;48.122;11.560;2023-06-14T07:32:37;16.40;94.20
23497;DHT22;11925;48.122;11.560;2023-06-14T07:35:06;16.40;94.30
23497;DHT22;11925;48.122;11.560;2023-06-14T07:37:34;16.40;94.40
23497;DHT22;11925;48.122;11.560;2023-06-14T07:40:05;16.40;94.30
23497;DHT22;11925;48.122;11.560;2023-06-14T07:42:34;16.40;94.40
23497;DHT22;11925;48.122;11.560;2023-06-14T07:45:03;16.50;94.60
23497;DHT22;11925;48.122;11.560;2023-06-14T07:47:31;16.40;94.70
23497;DHT22;11925;48.122;11.560;2023-06-14T07:49:59;16.40;94.70
23497;DHT22;11925;48.122;11.560;2023-06-14T07:52:27;16.40;94.60
23497;DHT22;11925;48.122;11.560;2023-06-14T07:54:56;16.40;94.60
23497;DHT22;11925;48.122;11.560;2023-06-14T07:57:26;16.40;94.80
23497;DHT22;11925;48.122;11.560;2023-06-14T07:59:55;16.50;94.80
23497;DHT22;11925;48.122;11.560;2023-06-14T08:02:23;16.50;95.00
23497;DHT22;11925;48.122;11.560;2023-06-14T08:04:51;16.50;95.10
23497;DHT22;11925;48.122;11.560;2023-06-14T08:07:20;16.50;95.10
23497;DHT22;11925;48.122;11.560;2023-06-14T08:09:49;16.40;95.00
23497;DHT22;11925;48.122;11.560;2023-06-14T08:12:17;16.40;95.00
23497;DHT22;11925;48.122;11.560;2023-06-14T08:14:47;16.40;95.00
23497;DHT22;11925;48.122;11.560;2023-06-14T08:17:27;16.40;95.00
23497;DHT22;11925;48.122;11.560;2023-06-14T08:19:55;16.50;94.80
23497;DHT22;11925;48.122;11.560;2023-06-14T08:22:24;16.50;94.70
23497;DHT22;11925;48.122;11.560;2023-06-14T08:24:54;16.50;94.70
23497;DHT22;11925;48.122;11.560;2023-06-14T08:27:22;16.50;94.60
23497;DHT22;11925;48.122;11.560;2023-06-14T08:29:52;16.50;94.90
23497;DHT22;11925;48.122;11.560;2023-06-14T08:32:20;16.50;95.20
23497;DHT22;11925;48.122;11.560;2023-06-14T08:34:48;16.50;95.30
23497;DHT22;11925;48.122;11.560;2023-06-14T08:37:31;16.50;95.30
23497;DHT22;11925;48.122;11.560;2023-06-14T08:40:00;16.40;95.30
23497;DHT22;11925;48.122;11.560;2023-06-14T08:42:32;16.50;95.50
23497;DHT22;11925;48.122;11.560;2023-06-14T08:45:02;16.50;95.40
23497;DHT22;11925;48.122;11.560;2023-06-14T08:47:30;16.50;95.40
23497;DHT22;11925;48.122;11.560;2023-06-14T08:50:08;16.50;95.40
23497;DHT22;11925;48.122;11.560;2023-06-14T08:52:54;16.50;95.30
23497;DHT22;11925;48.122;11.560;2023-06-14T08:55:24;16.50;95.30
23497;DHT22;11925;48.122;11.560;2023-06-14T08:57:54;16.50;95.30
23497;DHT22;11925;48.122;11.560;2023-06-14T09:00:24;16.50;95.20
23497;DHT22;11925;48.122;11.560;2023-06-14T09:02:53;16.50;95.20
23497;DHT22;11925;48.122;11.560;2023-06-14T09:05:25;16.50;95.00
23497;DHT22;11925;48.122;11.560;2023-06-14T09:07:54;16.60;95.10
23497;DHT22;11925;48.122;11.560;2023-06-14T09:10:23;16.60;95.30
23497;DHT22;11925;48.122;11.560;2023-06-14T09:12:53;16.60;95.60
23497;DHT22;11925;48.122;11.560;2023-06-14T09:15:21;16.50;95.70
23497;DHT22;11925;48.122;11.560;2023-06-14T09:17:51;16.50;95.40
23497;DHT22;11925;48.122;11.560;2023-06-14T09:20:19;16.50;95.40
23497;DHT22;11925;48.122;11.560;2023-06-14T09:22:47;16.50;95.30
23497;DHT22;11925;48.122;11.560;2023-06-14T09:25:16;16.50;95.20
23497;DHT22;11925;48.122;11.560;2023-06-14T09:28:05;16.50;95.30
23497;DHT22;11925;48.122;11.560;2023-06-14T09:30:34;16.50;95.40
23497;DHT22;11925;48.122;11.560;2023-06-14T09:33:04;16.50;95.50
23497;DHT22;11925;48.122;11.560;2023-06-14T09:35:32;16.50;95.70
23497;DHT22;11925;48.122;11.560;2023-06-14T09:38:01;16.50;95.70
23497;DHT22;11925;48.122;11.560;2023-06-14T09:40:30;16.50;95.60
23497;DHT22;11925;48.122;11.560;2023-06-14T09:43:01;16.50;95.50
23497;DHT22;11925;48.122;11.560;2023-06-14T09:45:31;16.50;95.40
23497;DHT22;11925;48.122;11.560;2023-06-14T09:48:00;16.50;95.30
23497;DHT22;11925;48.122;11.560;2023-06-14T09:50:35;16.60;95.40
23497;DHT22;11925;48.122;11.560;2023-06-14T09:53:05;16.50;95.50
23497;DHT22;11925;48.122;11.560;2023-06-14T09:55:34;16.50;95.50
23497;DHT22;11925;48.122;11.560;2023-06-14T09:58:04;16.50;95.50
23497;DHT22;11925;48.122;11.560;2023-06-14T10:00:34;16.60;95.40
23497;DHT22;11925;48.122;11.560;2023-06-14T10:03:03;16.50;95.40
23497;DHT22;11925;48.122;11.560;2023-06-14T10:05:36;16.60;95.50
23497;DHT22;11925;48.122;11.560;2023-06-14T10:08:05;16.60;95.40
23497;DHT22;11925;48.122;11.560;2023-06-14T10:10:35;16.60;95.40
23497;DHT22;11925;48.122;11.560;2023-06-14T10:13:06;16.50;95.20
23497;DHT22;11925;48.122;11.560;2023-06-14T10:15:37;16.50;95.30
23497;DHT22;11925;48.122;11.560;2023-06-14T10:18:07;16.60;95.40
23497;DHT22;11925;48.122;11.560;2023-06-14T10:20:44;16.60;95.50
23497;DHT22;11925;48.122;11.560;2023-06-14T10:23:17;16.60;95.40
23497;DHT22;11925;48.122;11.560;2023-06-14T10:25:49;16.60;95.40
23497;DHT22;11925;48.122;11.560;2023-06-14T10:32:25;16.60;95.90
23497;DHT22;11925;48.122;11.560;2023-06-14T10:34:55;16.60;95.60
23497;DHT22;11925;48.122;11.560;2023-06-14T10:37:25;16.60;95.60
23497;DHT22;11925;48.122;11.560;2023-06-14T10:39:53;16.60;95.80
23497;DHT22;11925;48.122;11.560;2023-06-14T10:42:21;16.60;95.70
23497;DHT22;11925;48.122;11.560;2023-06-14T10:44:50;16.60;95.50
23497;DHT22;11925;48.122;11.560;2023-06-14T10:50:07;16.60;95.60
23497;DHT22;11925;48.122;11.560;2023-06-14T10:52:39;16.50;95.50
23497;DHT22;11925;48.122;11.560;2023-06-14T10:55:12;16.50;95.30
23497;DHT22;11925;48.122;11.560;2023-06-14T10:57:43;16.60;95.30
23497;DHT22;11925;48.122;11.560;2023-06-14T11:00:19;16.60;95.20
23497;DHT22;11925;48.122;11.560;2023-06-14T11:03:15;16.60;95.50
23497;DHT22;11925;48.122;11.560;2023-06-14T11:05:53;16.60;95.30
23497;DHT22;11925;48.122;11.560;2023-06-14T11:08:32;16.60;95.40
23497;DHT22;11925;48.122;11.560;2023-06-14T11:11:05;16.60;95.30
23497;DHT22;11925;48.122;11.560;2023-06-14T11:13:34;16.60;95.30
23497;DHT22;11925;48.122;11.560;2023-06-14T11:16:10;16.60;95.10
23497;DHT22;11925;48.122;11.560;2023-06-14T11:18:39;16.60;95.10
23497;DHT22;11925;48.122;11.560;2023-06-14T11:21:07;16.60;95.20
23497;DHT22;11925;48.122;11.560;2023-06-14T11:23:37;16.60;95.20
23497;DHT22;11925;48.122;11.560;2023-06-14T11:26:05;16.60;95.20
23497;DHT22;11925;48.122;11.560;2023-06-14T11:28:38;16.60;95.10
23497;DHT22;11925;48.122;11.560;2023-06-14T11:31:07;16.60;95.10
23497;DHT22;11925;48.122;11.560;2023-06-14T11:33:35;16.60;95.20
23497;DHT22;11925;48.122;11.560;2023-06-14T11:36:04;16.60;95.40
23497;DHT22;11925;48.122;11.560;2023-06-14T11:38:35;16.60;95.20
23497;DHT22;11925;48.122;11.560;2023-06-14T11:41:05;16.60;95.10
23497;DHT22;11925;48.122;11.560;2023-06-14T11:43:35;16.60;94.90
23497;DHT22;11925;48.122;11.560;2023-06-14T11:46:04;16.60;94.90
23497;DHT22;11925;48.122;11.560;2023-06-14T11:48:37;16.60;95.00
23497;DHT22;11925;48.122;11.560;2023-06-14T11:51:06;16.60;94.90
23497;DHT22;11925;48.122;11.560;2023-06-14T11:53:34;16.70;94.90
23497;DHT22;11925;48.122;11.560;2023-06-14T11:56:04;16.60;95.10
23497;DHT22;11925;48.122;11.560;2023-06-14T11:58:32;16.70;95.20
23497;DHT22;11925;48.122;11.560;2023-06-14T12:01:02;16.70;95.00
23497;DHT22;11925;48.122;11.560;2023-06-14T12:03:30;16.70;95.20
23497;DHT22;11925;48.122;11.560;2023-06-14T12:06:03;16.70;95.30
23497;DHT22;11925;48.122;11.560;2023-06-14T12:08:32;16.70;95.00
23497;DHT22;11925;48.122;11.560;2023-06-14T12:11:10;16.70;95.10
23497;DHT22;11925;48.122;11.560;2023-06-14T12:13:39;16.70;95.20
23497;DHT22;11925;48.122;11.560;2023-06-14T12:16:07;16.70;95.20
23497;DHT22;11925;48.122;11.560;2023-06-14T12:18:36;16.70;95.20
23497;DHT22;11925;48.122;11.560;2023-06-14T12:21:04;16.70;95.40
23497;DHT22;11925;48.122;11.560;2023-06-14T12:23:42;16.70;95.20
23497;DHT22;11925;48.122;11.560;2023-06-14T12:26:13;16.70;94.90
23497;DHT22;11925;48.122;11.560;2023-06-14T12:28:43;16.70;94.90
23497;DHT22;11925;48.122;11.560;2023-06-14T12:31:13;16.70;94.90
23497;DHT22;11925;48.122;11.560;2023-06-14T12:33:41;16.70;95.20
23497;DHT22;11925;48.122;11.560;2023-06-14T12:36:10;16.70;95.20
23497;DHT22;11925;48.122;11.560;2023-06-14T12:38:38;16.70;95.20
23497;DHT22;11925;48.122;11.560;2023-06-14T12:41:06;16.60;95.20
23497;DHT22;11925;48.122;11.560;2023-06-14T12:43:35;16.60;95.30
23497;DHT22;11925;48.122;11.560;2023-06-14T12:46:04;16.60;95.20
23497;DHT22;11925;48.122;11.560;2023-06-14T12:48:32;16.60;95.20
23497;DHT22;11925;48.122;11.560;2023-06-14T12:51:01;16.60;95.30
23497;DHT22;11925;48.122;11.560;2023-06-14T12:53:29;16.60;95.50
23497;DHT22;11925;48.122;11.560;2023-06-14T12:55:57;16.70;95.60
23497;DHT22;11925;48.122;11.560;2023-06-14T12:58:25;16.70;95.50
23497;DHT22;11925;48.122;11.560;2023-06-14T13:00:55;16.70;95.60
23497;DHT22;11925;48.122;11.560;2023-06-14T13:03:23;16.70;95.40
23497;DHT22;11925;48.122;11.560;2023-06-14T13:05:51;16.60;95.10
23497;DHT22;11925;48.122;11.560;2023-06-14T13:08:19;16.60;94.60
23497;DHT22;11925;48.122;11.560;2023-06-14T13:10:51;16.60;94.80
23497;DHT22;11925;48.122;11.560;2023-06-14T13:13:19;16.70;94.90
23497;DHT22;11925;48.122;11.560;2023-06-14T13:15:47;16.70;94.90
23497;DHT22;11925;48.122;11.560;2023-06-14T13:18:18;16.70;95.30
23497;DHT22;11925;48.122;11.560;2023-06-14T13:20:46;16.70;95.40
23497;DHT22;11925;48.122;11.560;2023-06-14T13:23:15;16.70;95.30
23497;DHT22;11925;48.122;11.560;2023-06-14T13:25:43;16.70;95.30
23497;DHT22;11925;48.122;11.560;2023-06-14T13:28:12;16.70;95.30
23497;DHT22;11925;48.122;11.560;2023-06-14T13:30:40;16.70;95.40
23497;DHT22;11925;48.122;11.560;2023-06-14T13:33:08;16.70;95.50
23497;DHT22;11925;48.122;11.560;2023-06-14T13:35:37;16.80;95.40
23497;DHT22;11925;48.122;11.560;2023-06-14T13:38:06;16.70;95.50
23497;DHT22;11925;48.122;11.560;2023-06-14T13:40:34;16.70;95.40
23497;DHT22;11925;48.122;11.560;2023-06-14T13:43:02;16.70;95.80
23497;DHT22;11925;48.122;11.560;2023-06-14T13:45:30;16.70;95.60
23497;DHT22;11925;48.122;11.560;2023-06-14T13:47:58;16.70;95.50
23497;DHT22;11925;48.122;11.560;2023-06-14T13:50:27;16.70;95.30
23497;DHT22;11925;48.122;11.560;2023-06-14T13:52:56;16.70;95.40
23497;DHT22;11925;48.122;11.560;2023-06-14T13:55:25;16.70;95.50
23497;DHT22;11925;48.122;11.560;2023-06-14T13:57:53;16.70;95.50
23497;DHT22;11925;48.122;11.560;2023-06-14T14:00:21;16.70;95.40
23497;DHT22;11925;48.122;11.560;2023-06-14T14:02:50;16.70;95.10
23497;DHT22;11925;48.122;11.560;2023-06-14T14:05:18;16.70;94.90
23497;DHT22;11925;48.122;11.560;2023-06-14T14:07:47;16.70;95.00
23497;DHT22;11925;48.122;11.560;2023-06-14T14:10:17;16.70;95.10
23497;DHT22;11925;48.122;11.560;2023-06-14T14:12:46;16.80;95.40
23497;DHT22;11925;48.122;11.560;2023-06-14T14:15:15;16.80;95.40
23497;DHT22;11925;48.122;11.560;2023-06-14T14:17:44;16.70;95.20
23497;DHT22;11925;48.122;11.560;2023-06-14T14:20:12;16.80;95.30
23497;DHT22;11925;48.122;11.560;2023-06-14T14:22:43;16.70;95.40
23497;DHT22;11925;48.122;11.560;2023-06-14T14:25:11;16.70;94.90
23497;DHT22;11925;48.122;11.560;2023-06-14T14:27:40;16.70;94.80
23497;DHT22;11925;48.122;11.560;2023-06-14T14:30:09;16.80;94.80
23497;DHT22;11925;48.122;11.560;2023-06-14T14:32:37;16.70;95.00
23497;DHT22;11925;48.122;11.560;2023-06-14T14:35:06;16.70;94.70
23497;DHT22;11925;48.122;11.560;2023-06-14T14:37:35;16.70;94.70
23497;DHT22;11925;48.122;11.560;2023-06-14T14:40:04;16.70;94.90
23497;DHT22;11925;48.122;11.560;2023-06-14T14:42:33;16.70;94.70
23497;DHT22;11925;48.122;11.560;2023-06-14T14:45:03;16.70;94.90
23497;DHT22;11925;48.122;11.560;2023-06-14T14:47:31;16.70;94.70
23497;DHT22;11925;48.122;11.560;2023-06-14T14:49:59;16.70;94.90
23497;DHT22;11925;48.122;11.560;2023-06-14T14:52:28;16.70;94.70
23497;DHT22;11925;48.122;11.560;2023-06-14T14:54:57;16.70;94.70
23497;DHT22;11925;48.122;11.560;2023-06-14T14:57:26;16.70;94.50
23497;DHT22;11925;48.122;11.560;2023-06-14T14:59:54;16.70;94.70
23497;DHT22;11925;48.122;11.560;2023-06-14T15:02:23;16.70;94.30
23497;DHT22;11925;48.122;11.560;2023-06-14T15:04:51;16.70;93.50
23497;DHT22;11925;48.122;11.560;2023-06-14T15:07:21;16.70;93.60
23497;DHT22;11925;48.122;11.560;2023-06-14T15:09:49;16.70;93.60
23497;DHT22;11925;48.122;11.560;2023-06-14T15:12:18;16.70;93.70
23497;DHT22;11925;48.122;11.560;2023-06-14T15:14:47;16.70;93.90
23497;DHT22;11925;48.122;11.560;2023-06-14T15:17:15;16.80;93.50
23497;DHT22;11925;48.122;11.560;2023-06-14T15:19:44;16.80;93.80
23497;DHT22;11925;48.122;11.560;2023-06-14T15:22:13;16.70;93.40
23497;DHT22;11925;48.122;11.560;2023-06-14T15:24:41;16.70;93.70
23497;DHT22;11925;48.122;11.560;2023-06-14T15:27:11;16.70;93.50
23497;DHT22;11925;48.122;11.560;2023-06-14T15:29:40;16.70;93.50
23497;DHT22;11925;48.122;11.560;2023-06-14T15:32:09;16.90;93.60
23497;DHT22;11925;48.122;11.560;2023-06-14T15:34:37;16.70;93.60
23497;DHT22;11925;48.122;11.560;2023-06-14T15:37:07;16.70;93.60